createdAt,value
2023-01-15T00:00:00.584Z,99711.81
2023-01-15T00:02:28.477Z,99704.59
2023-01-15T00:04:56.563Z,99703.41
2023-01-15T00:07:24.394Z,99703.72
2023-01-15T00:09:52.655Z,99702.66
2023-01-15T00:12:20.451Z,99711.50
2023-01-15T00:14:49.825Z,99714.53
2023-01-15T00:17:17.718Z,99713.31
2023-01-15T00:19:45.475Z,99706.84
2023-01-15T00:22:13.355Z,99716.03
2023-01-15T00:24:58.813Z,99709.88
2023-01-15T00:27:40.913Z,99700.53
2023-01-15T00:30:13.861Z,99710.59
2023-01-15T00:32:42.256Z,99699.78
2023-01-15T00:35:13.963Z,99706.25
2023-01-15T00:37:43.035Z,99707.78
2023-01-15T00:40:12.871Z,99702.81
2023-01-15T00:42:41.083Z,99699.66
2023-01-15T00:45:12.234Z,99703.84
2023-01-15T00:47:41.836Z,99697.69
2023-01-15T00:50:13.048Z,99704.59
2023-01-15T00:52:40.926Z,99702.50
2023-01-15T00:55:10.357Z,99705.97
2023-01-15T00:57:38.202Z,99700.84
2023-01-15T01:00:07.340Z,99706.75
2023-01-15T01:02:36.620Z,99703.16
2023-01-15T01:05:04.793Z,99699.09
2023-01-15T01:07:32.589Z,99699.97
2023-01-15T01:10:00.398Z,99711.59
2023-01-15T01:12:28.509Z,99712.91
2023-01-15T01:14:56.428Z,99698.94
2023-01-15T01:17:25.043Z,99702.38
2023-01-15T01:19:54.207Z,99705.88
2023-01-15T01:22:22.009Z,99701.66
2023-01-15T01:24:49.927Z,99700.16
2023-01-15T01:27:18.942Z,99715.63
2023-01-15T01:29:46.682Z,99714.88
2023-01-15T01:32:14.537Z,99713.38
2023-01-15T01:34:42.378Z,99717.59
2023-01-15T01:37:11.524Z,99714.44
2023-01-15T01:39:39.323Z,99713.69
2023-01-15T01:42:12.882Z,99724.53
2023-01-15T01:45:02.714Z,99717.59
2023-01-15T01:47:34.066Z,99727.69
2023-01-15T01:50:08.081Z,99723.75
2023-01-15T01:52:43.151Z,99731.13
2023-01-15T01:55:11.925Z,99724.06
2023-01-15T01:57:41.260Z,99736.09
2023-01-15T02:00:11.489Z,99734.59
2023-01-15T02:02:44.401Z,99729.66
2023-01-15T02:05:16.118Z,99734.31
2023-01-15T02:07:46.486Z,99726.63
2023-01-15T02:10:16.538Z,99719.25
2023-01-15T02:12:50.613Z,99718.19
2023-01-15T02:15:23.722Z,99716.53
2023-01-15T02:17:57.151Z,99720.91
2023-01-15T02:20:32.267Z,99702.38
2023-01-15T02:23:16.723Z,99710.50
2023-01-15T02:25:59.077Z,99703.59
2023-01-15T02:28:31.183Z,99712.78
2023-01-15T02:31:05.792Z,99702.38
2023-01-15T02:33:38.486Z,99715.19
2023-01-15T02:36:10.420Z,99724.06
2023-01-15T02:38:43.009Z,99717.88
2023-01-15T02:41:16.526Z,99713.53
2023-01-15T02:43:51.518Z,99711.59
2023-01-15T02:46:22.206Z,99718.19
2023-01-15T02:48:54.856Z,99726.03
2023-01-15T02:51:26.658Z,99710.97
2023-01-15T02:54:00.421Z,99714.44
2023-01-15T02:56:35.989Z,99708.28
2023-01-15T02:59:08.973Z,99706.75
2023-01-15T03:01:41.943Z,99706.31
2023-01-15T03:04:19.544Z,99695.91
2023-01-15T03:06:53.261Z,99697.28
2023-01-15T03:09:23.989Z,99696.84
2023-01-15T03:12:03.937Z,99698.31
2023-01-15T03:14:43.156Z,99699.84
2023-01-15T03:17:18.542Z,99699.84
2023-01-15T03:19:51.445Z,99699.97
2023-01-15T03:22:27.059Z,99702.56
2023-01-15T03:25:01.884Z,99719.25
2023-01-15T03:27:33.360Z,99700.91
2023-01-15T03:30:07.779Z,99701.63
2023-01-15T03:32:36.569Z,99695.78
2023-01-15T03:35:07.899Z,99701.63
2023-01-15T03:37:40.338Z,99703.31
2023-01-15T03:40:11.497Z,99695.91
2023-01-15T03:42:50.241Z,99697.13
2023-01-15T03:45:27.530Z,99685.69
2023-01-15T03:48:04.097Z,99695.16
2023-01-15T03:50:42.249Z,99717.00
2023-01-15T03:53:15.605Z,99698.63
2023-01-15T03:55:55.358Z,99703.16
2023-01-15T03:58:29.080Z,99691.72
2023-01-15T04:01:03.282Z,99695.91
2023-01-15T04:03:35.197Z,99690.81
2023-01-15T04:06:04.639Z,99687.66
2023-01-15T04:08:36.506Z,99692.03
2023-01-15T04:11:04.422Z,99687.34
2023-01-15T04:13:35.207Z,99689.31
2023-01-15T04:16:05.948Z,99685.38
2023-01-15T04:18:33.831Z,99691.28
2023-01-15T04:21:01.653Z,99684.34
2023-01-15T04:23:31.890Z,99704.81
2023-01-15T04:25:59.686Z,99692.75
2023-01-15T04:28:27.470Z,99695.16
2023-01-15T04:30:59.802Z,99690.06
2023-01-15T04:33:28.986Z,99686.59
2023-01-15T04:35:56.795Z,99690.81
2023-01-15T04:38:24.631Z,99683.16
2023-01-15T04:41:10.156Z,99685.09
2023-01-15T04:43:55.557Z,99681.19
2023-01-15T04:46:23.507Z,99684.34
2023-01-15T04:48:52.735Z,99680.56
2023-01-15T04:51:20.565Z,99688.41
2023-01-15T04:53:48.420Z,99686.16
2023-01-15T04:56:16.254Z,99692.00
2023-01-15T04:58:44.004Z,99685.38
2023-01-15T05:01:13.147Z,99680.28
2023-01-15T05:03:41.096Z,99683.44
2023-01-15T05:06:10.953Z,99685.06
2023-01-15T05:08:38.814Z,99686.00
2023-01-15T05:11:08.128Z,99675.59
2023-01-15T05:13:35.933Z,99693.19
2023-01-15T05:16:15.514Z,99694.41
2023-01-15T05:18:44.212Z,99687.34
2023-01-15T05:21:20.592Z,99683.91
2023-01-15T05:23:49.273Z,99681.94
2023-01-15T05:26:17.582Z,99672.00
2023-01-15T05:28:46.216Z,99675.78
2023-01-15T05:31:16.393Z,99666.13
2023-01-15T05:33:45.017Z,99680.88
2023-01-15T05:36:15.109Z,99678.63
2023-01-15T05:38:44.500Z,99671.09
2023-01-15T05:41:27.960Z,99669.59
2023-01-15T05:43:56.130Z,99662.66
2023-01-15T05:46:24.294Z,99665.38
2023-01-15T05:48:52.165Z,99661.63
2023-01-15T05:51:20.232Z,99664.78
2023-01-15T05:53:49.401Z,99670.47
2023-01-15T05:56:17.215Z,99675.00
2023-01-15T05:58:44.964Z,99678.59
2023-01-15T06:01:13.115Z,99669.75
2023-01-15T06:03:41.705Z,99673.50
2023-01-15T06:06:14.533Z,99675.75
2023-01-15T06:08:42.707Z,99680.75
2023-01-15T06:11:12.275Z,99684.94
2023-01-15T06:13:40.681Z,99676.06
2023-01-15T06:16:10.819Z,99659.53
2023-01-15T06:18:39.010Z,99672.31
2023-01-15T06:21:08.076Z,99682.53
2023-01-15T06:23:36.749Z,99680.41
2023-01-15T06:26:06.879Z,99692.28
2023-01-15T06:28:36.326Z,99707.75
2023-01-15T06:31:06.752Z,99712.69
2023-01-15T06:33:34.836Z,99707.53
2023-01-15T06:36:05.083Z,99715.81
2023-01-15T06:38:32.920Z,99708.28
2023-01-15T06:41:01.315Z,99699.69
2023-01-15T06:43:46.953Z,99698.59
2023-01-15T06:46:35.664Z,99707.75
2023-01-15T06:49:03.506Z,99706.38
2023-01-15T06:51:31.426Z,99702.28
2023-01-15T06:53:59.292Z,99701.22
2023-01-15T06:56:27.090Z,99701.03
2023-01-15T06:58:56.089Z,99699.34
2023-01-15T07:01:30.737Z,99704.59
2023-01-15T07:03:58.632Z,99698.97
2023-01-15T07:06:26.561Z,99697.63
2023-01-15T07:08:54.478Z,99700.34
2023-01-15T07:11:22.328Z,99700.63
2023-01-15T07:13:50.222Z,99704.38
2023-01-15T07:16:28.701Z,99700.94
2023-01-15T07:18:58.002Z,99701.84
2023-01-15T07:21:25.764Z,99707.09
2023-01-15T07:23:54.175Z,99703.97
2023-01-15T07:26:22.001Z,99696.28
2023-01-15T07:28:49.869Z,99717.78
2023-01-15T07:31:17.674Z,99706.97
2023-01-15T07:33:45.676Z,99704.59
2023-01-15T07:36:14.872Z,99694.22
2023-01-15T07:38:43.151Z,99702.78
2023-01-15T07:41:28.604Z,99693.16
2023-01-15T07:44:14.387Z,99703.22
2023-01-15T07:46:59.910Z,99709.78
2023-01-15T07:49:45.129Z,99700.06
2023-01-15T07:52:14.498Z,99699.94
2023-01-15T07:54:42.273Z,99693.47
2023-01-15T07:57:10.430Z,99698.13
2023-01-15T07:59:38.260Z,99692.25
2023-01-15T08:02:06.207Z,99694.53
2023-01-15T08:04:34.301Z,99684.66
2023-01-15T08:07:02.435Z,99685.41
2023-01-15T08:09:31.858Z,99688.84
2023-01-15T08:12:18.198Z,99685.41
2023-01-15T08:15:03.717Z,99687.22
2023-01-15T08:17:31.477Z,99690.09
2023-01-15T08:19:59.305Z,99695.25
2023-01-15T08:22:27.138Z,99699.63
2023-01-15T08:24:56.272Z,99713.31
2023-01-15T08:27:24.115Z,99696.50
2023-01-15T08:29:52.003Z,99693.22
2023-01-15T08:32:19.855Z,99695.63
2023-01-15T08:34:47.624Z,99688.59
2023-01-15T08:37:15.417Z,99694.78
2023-01-15T08:39:43.199Z,99688.34
2023-01-15T08:42:12.321Z,99708.50
2023-01-15T08:44:40.076Z,99690.00
2023-01-15T08:47:07.899Z,99688.22
2023-01-15T08:49:35.750Z,99673.66
2023-01-15T08:52:03.919Z,99679.22
2023-01-15T08:54:31.990Z,99681.03
2023-01-15T08:57:00.258Z,99701.31
2023-01-15T08:59:29.674Z,99680.88
2023-01-15T09:01:57.710Z,99677.72
2023-01-15T09:04:25.584Z,99683.59
2023-01-15T09:06:53.768Z,99678.78
2023-01-15T09:09:21.606Z,99685.38
2023-01-15T09:11:49.711Z,99680.28
2023-01-15T09:14:59.656Z,99689.03
2023-01-15T09:17:06.639Z,99699.25
2023-01-15T09:19:34.487Z,99698.03
2023-01-15T09:22:02.360Z,99698.50
2023-01-15T09:24:30.139Z,99685.69
2023-01-15T09:26:57.965Z,99705.25
2023-01-15T09:29:25.741Z,99707.63
2023-01-15T09:31:53.704Z,99687.06
2023-01-15T09:34:22.942Z,99693.91
2023-01-15T09:36:51.253Z,99704.97
2023-01-15T09:39:19.089Z,99715.63
2023-01-15T09:42:07.877Z,99692.94
2023-01-15T09:45:08.407Z,99694.75
2023-01-15T09:47:40.515Z,99676.16
2023-01-15T09:50:24.668Z,99690.00
2023-01-15T09:53:11.697Z,99677.31
2023-01-15T09:55:46.690Z,99692.53
2023-01-15T09:58:17.793Z,99702.66
2023-01-15T10:00:48.057Z,99685.81
2023-01-15T10:03:26.576Z,99687.03
2023-01-15T10:06:06.701Z,99697.84
2023-01-15T10:08:38.180Z,99697.53
2023-01-15T10:11:23.071Z,99695.63
2023-01-15T10:13:54.974Z,99689.88
2023-01-15T10:16:25.871Z,99700.28
2023-01-15T10:18:54.488Z,99687.28
2023-01-15T10:21:33.154Z,99678.97
2023-01-15T10:24:07.340Z,99684.19
2023-01-15T10:26:40.311Z,99713.78
2023-01-15T10:29:18.830Z,99686.19
2023-01-15T10:31:53.924Z,99695.66
2023-01-15T10:35:03.759Z,99698.28
2023-01-15T10:37:41.681Z,99698.31
2023-01-15T10:40:31.585Z,99723.41
2023-01-15T10:43:07.735Z,99719.38
2023-01-15T10:45:39.894Z,99703.91
2023-01-15T10:48:25.686Z,99706.66
2023-01-15T10:50:54.612Z,99697.78
2023-01-15T10:53:32.451Z,99719.97
2023-01-15T10:56:05.165Z,99708.34
2023-01-15T10:58:41.106Z,99721.34
2023-01-15T11:01:14.210Z,99687.13
2023-01-15T11:03:44.586Z,99715.88
2023-01-15T11:06:16.046Z,99716.91
2023-01-15T11:09:08.686Z,99694.84
2023-01-15T11:11:58.281Z,99706.19
2023-01-15T11:14:55.051Z,99702.78
2023-01-15T11:17:41.642Z,99758.06
2023-01-15T11:20:28.903Z,99713.78
2023-01-15T11:22:57.772Z,99713.09
2023-01-15T11:25:32.604Z,99711.34
2023-01-15T11:28:03.538Z,99705.34
2023-01-15T11:30:33.435Z,99707.16
2023-01-15T11:33:04.687Z,99700.78
2023-01-15T11:35:32.569Z,99714.72
2023-01-15T11:38:05.463Z,99722.16
2023-01-15T11:40:35.472Z,99724.91
2023-01-15T11:43:20.627Z,99713.34
2023-01-15T11:46:07.308Z,99713.81
2023-01-15T11:48:54.110Z,99712.34
2023-01-15T11:51:21.958Z,99727.44
2023-01-15T11:53:52.577Z,99720.63
2023-01-15T11:56:25.700Z,99719.13
2023-01-15T11:58:56.193Z,99708.41
2023-01-15T12:01:27.842Z,99721.94
2023-01-15T12:03:56.612Z,99701.91
2023-01-15T12:06:26.848Z,99743.78
2023-01-15T12:09:03.088Z,99715.47
2023-01-15T12:11:59.647Z,99715.00
2023-01-15T12:15:00.907Z,99688.50
2023-01-15T12:17:48.405Z,99693.66
2023-01-15T12:20:25.475Z,99698.25
2023-01-15T12:23:21.974Z,99718.50
2023-01-15T12:25:58.546Z,99707.06
2023-01-15T12:28:32.044Z,99704.22
2023-01-15T12:31:04.909Z,99713.69
2023-01-15T12:33:46.487Z,99699.66
2023-01-15T12:36:20.596Z,99703.53
2023-01-15T12:38:55.407Z,99710.63
2023-01-15T12:41:47.451Z,99711.81
2023-01-15T12:44:38.690Z,99704.31
2023-01-15T12:47:11.623Z,99705.66
2023-01-15T12:49:45.891Z,99707.75
2023-01-15T12:52:22.849Z,99718.88
2023-01-15T12:54:57.684Z,99705.13
2023-01-15T12:57:34.294Z,99707.97
2023-01-15T13:00:08.481Z,99706.47
2023-01-15T13:02:43.802Z,99717.88
2023-01-15T13:05:19.522Z,99712.47
2023-01-15T13:07:55.697Z,99722.09
2023-01-15T13:10:26.241Z,99715.03
2023-01-15T13:12:55.298Z,99707.97
2023-01-15T13:15:30.115Z,99731.44
2023-01-15T13:18:06.351Z,99724.06
2023-01-15T13:20:44.561Z,99721.84
2023-01-15T13:23:23.203Z,99714.47
2023-01-15T13:26:01.069Z,99721.53
2023-01-15T13:28:40.493Z,99717.94
2023-01-15T13:31:22.935Z,99722.91
2023-01-15T13:33:54.163Z,99737.19
2023-01-15T13:36:25.881Z,99711.19
2023-01-15T13:38:57.422Z,99727.88
2023-01-15T13:41:45.870Z,99721.13
2023-01-15T13:44:18.799Z,99717.84
2023-01-15T13:46:59.075Z,99722.66
2023-01-15T13:49:34.316Z,99734.56
2023-01-15T13:52:04.400Z,99728.66
2023-01-15T13:54:34.177Z,99744.03
2023-01-15T13:57:09.073Z,99746.28
2023-01-15T13:59:43.745Z,99745.53
2023-01-15T14:02:30.248Z,99741.63
2023-01-15T14:04:58.483Z,99746.44
2023-01-15T14:07:34.809Z,99749.59
2023-01-15T14:10:10.570Z,99743.41
2023-01-15T14:12:52.198Z,99745.38
2023-01-15T14:15:40.089Z,99749.59
2023-01-15T14:18:31.140Z,99749.59
2023-01-15T14:21:15.813Z,99757.09
2023-01-15T14:24:09.166Z,99759.19
2023-01-15T14:26:48.119Z,99767.72
2023-01-15T14:29:33.715Z,99785.28
2023-01-15T14:32:10.657Z,99780.34
2023-01-15T14:34:40.317Z,99769.03
2023-01-15T14:37:24.173Z,99760.63
2023-01-15T14:39:55.617Z,99769.03
2023-01-15T14:42:47.025Z,99778.00
2023-01-15T14:45:25.690Z,99777.56
2023-01-15T14:47:55.599Z,99793.63
2023-01-15T14:50:38.524Z,99792.19
2023-01-15T14:53:27.545Z,99783.84
2023-01-15T14:55:58.833Z,99793.50
2023-01-15T14:58:38.342Z,99795.19
2023-01-15T15:01:16.612Z,99806.63
2023-01-15T15:03:51.146Z,99798.84
2023-01-15T15:06:22.277Z,99799.47
2023-01-15T15:08:51.469Z,99796.31
2023-01-15T15:11:42.826Z,99797.03
2023-01-15T15:14:13.993Z,99802.47
2023-01-15T15:16:48.118Z,99799.75
2023-01-15T15:19:20.137Z,99824.88
2023-01-15T15:21:50.131Z,99835.22
2023-01-15T15:24:25.332Z,99813.28
2023-01-15T15:26:53.154Z,99802.59
2023-01-15T15:29:22.887Z,99804.69
2023-01-15T15:31:56.214Z,99805.88
2023-01-15T15:34:28.646Z,99816.25
2023-01-15T15:37:01.448Z,99823.19
2023-01-15T15:39:36.675Z,99826.63
2023-01-15T15:42:29.684Z,99826.00
2023-01-15T15:45:18.650Z,99816.50
2023-01-15T15:48:04.170Z,99828.22
2023-01-15T15:50:33.501Z,99830.59
2023-01-15T15:53:04.560Z,99834.94
2023-01-15T15:55:38.925Z,99838.72
2023-01-15T15:58:09.172Z,99844.25
2023-01-15T16:00:43.144Z,99835.50
2023-01-15T16:03:20.180Z,99848.81
2023-01-15T16:05:57.607Z,99848.22
2023-01-15T16:08:28.003Z,99851.34
2023-01-15T16:10:58.679Z,99849.53
2023-01-15T16:13:30.053Z,99852.81
2023-01-15T16:16:00.282Z,99852.47
2023-01-15T16:18:32.656Z,99852.91
2023-01-15T16:21:00.749Z,99850.97
2023-01-15T16:23:31.695Z,99856.03
2023-01-15T16:26:07.938Z,99872.25
2023-01-15T16:28:41.895Z,99876.81
2023-01-15T16:31:10.227Z,99873.53
2023-01-15T16:33:38.790Z,99883.03
2023-01-15T16:36:08.066Z,99899.91
2023-01-15T16:38:40.017Z,99899.34
2023-01-15T16:41:08.665Z,99877.50
2023-01-15T16:43:52.656Z,99882.78
2023-01-15T16:46:22.491Z,99878.66
2023-01-15T16:48:50.395Z,99875.75
2023-01-15T16:51:31.137Z,99865.41
2023-01-15T16:54:02.052Z,99869.72
2023-01-15T16:56:51.839Z,99883.97
2023-01-15T16:59:42.166Z,99865.72
2023-01-15T17:02:15.532Z,99865.72
2023-01-15T17:04:45.858Z,99861.28
2023-01-15T17:07:20.741Z,99857.72
2023-01-15T17:09:52.354Z,99858.34
2023-01-15T17:12:26.472Z,99856.41
2023-01-15T17:14:54.834Z,99875.91
2023-01-15T17:17:28.510Z,99877.22
2023-01-15T17:19:57.615Z,99873.50
2023-01-15T17:22:28.150Z,99874.25
2023-01-15T17:25:02.967Z,99882.38
2023-01-15T17:27:31.452Z,99885.69
2023-01-15T17:29:59.258Z,99887.41
2023-01-15T17:32:31.457Z,99886.66
2023-01-15T17:34:59.649Z,99886.66
2023-01-15T17:37:27.426Z,99895.66
2023-01-15T17:39:55.334Z,99887.63
2023-01-15T17:42:24.593Z,99876.84
2023-01-15T17:44:52.425Z,99875.75
2023-01-15T17:47:20.283Z,99885.06
2023-01-15T17:49:48.107Z,99881.59
2023-01-15T17:52:20.269Z,99894.81
2023-01-15T17:55:05.677Z,99876.75
2023-01-15T17:58:04.104Z,99876.88
2023-01-15T18:00:49.161Z,99887.78
2023-01-15T18:03:51.032Z,99895.47
2023-01-15T18:06:22.319Z,99891.56
2023-01-15T18:08:53.696Z,99895.78
2023-01-15T18:11:22.880Z,99883.47
2023-01-15T18:13:52.510Z,99899.34
2023-01-15T18:16:20.672Z,99894.06
2023-01-15T18:18:48.648Z,99890.72
2023-01-15T18:21:16.426Z,99893.09
2023-01-15T18:23:44.256Z,99884.25
2023-01-15T18:26:12.066Z,99888.25
2023-01-15T18:28:40.046Z,99892.16
2023-01-15T18:31:11.351Z,99889.88
2023-01-15T18:33:39.353Z,99886.09
2023-01-15T18:36:09.767Z,99879.97
2023-01-15T18:38:37.929Z,99884.16
2023-01-15T18:41:09.834Z,99876.81
2023-01-15T18:43:55.031Z,99878.75
2023-01-15T18:46:41.936Z,99867.53
2023-01-15T18:49:09.779Z,99883.72
2023-01-15T18:51:37.569Z,99877.69
2023-01-15T18:54:06.216Z,99884.56
2023-01-15T18:56:40.190Z,99885.03
2023-01-15T18:59:08.882Z,99881.59
2023-01-15T19:01:38.549Z,99875.06
2023-01-15T19:04:08.599Z,99878.22
2023-01-15T19:06:37.249Z,99878.34
2023-01-15T19:09:05.187Z,99882.66
2023-01-15T19:11:33.062Z,99880.09
2023-01-15T19:14:18.533Z,99879.75
2023-01-15T19:17:05.304Z,99877.59
2023-01-15T19:19:33.069Z,99879.97
2023-01-15T19:22:18.287Z,99865.41
2023-01-15T19:24:46.841Z,99873.94
2023-01-15T19:27:16.166Z,99867.44
2023-01-15T19:29:43.962Z,99864.09
2023-01-15T19:32:13.128Z,99868.00
2023-01-15T19:34:40.977Z,99865.41
2023-01-15T19:37:09.073Z,99864.31
2023-01-15T19:39:36.883Z,99850.81
2023-01-15T19:42:22.643Z,99854.28
2023-01-15T19:45:08.167Z,99853.94
2023-01-15T19:47:56.852Z,99847.16
2023-01-15T19:50:27.838Z,99853.00
2023-01-15T19:52:56.545Z,99846.94
2023-01-15T19:55:25.984Z,99853.84
2023-01-15T19:57:58.061Z,99848.13
2023-01-15T20:00:26.262Z,99843.16
2023-01-15T20:02:56.415Z,99838.97
2023-01-15T20:05:25.865Z,99838.19
2023-01-15T20:07:53.693Z,99834.75
2023-01-15T20:10:23.327Z,99824.38
2023-01-15T20:13:09.116Z,99829.03
2023-01-15T20:15:39.209Z,99824.38
2023-01-15T20:18:09.585Z,99821.78
2023-01-15T20:20:38.600Z,99817.28
2023-01-15T20:23:06.449Z,99809.19
2023-01-15T20:25:34.379Z,99807.31
2023-01-15T20:28:02.154Z,99811.22
2023-01-15T20:30:30.415Z,99809.28
2023-01-15T20:32:59.054Z,99804.75
2023-01-15T20:35:31.239Z,99802.47
2023-01-15T20:37:59.429Z,99800.19
2023-01-15T20:40:27.479Z,99799.91
2023-01-15T20:43:13.712Z,99799.91
2023-01-15T20:45:42.317Z,99781.44
2023-01-15T20:48:27.704Z,99787.59
2023-01-15T20:51:02.579Z,99784.88
2023-01-15T20:53:34.472Z,99775.72
2023-01-15T20:56:03.007Z,99776.16
2023-01-15T20:58:31.023Z,99780.38
2023-01-15T21:01:03.637Z,99771.81
2023-01-15T21:03:31.527Z,99767.53
2023-01-15T21:06:01.671Z,99763.63
2023-01-15T21:08:30.429Z,99769.78
2023-01-15T21:10:58.255Z,99767.09
2023-01-15T21:13:26.050Z,99761.38
2023-01-15T21:15:55.859Z,99754.06
2023-01-15T21:18:25.035Z,99753.72
2023-01-15T21:20:52.836Z,99749.72
2023-01-15T21:23:22.186Z,99747.97
2023-01-15T21:25:50.079Z,99742.50
2023-01-15T21:28:18.000Z,99745.38
2023-01-15T21:30:45.961Z,99759.41
2023-01-15T21:33:13.838Z,99744.31
2023-01-15T21:35:42.108Z,99738.38
2023-01-15T21:38:10.416Z,99734.03
2023-01-15T21:40:40.294Z,99730.13
2023-01-15T21:43:25.642Z,99724.75
2023-01-15T21:46:02.444Z,99723.88
2023-01-15T21:48:30.249Z,99717.59
2023-01-15T21:50:58.055Z,99720.19
2023-01-15T21:53:25.998Z,99711.00
2023-01-15T21:55:55.143Z,99695.28
2023-01-15T21:58:22.950Z,99693.97
2023-01-15T22:00:50.748Z,99682.59
2023-01-15T22:03:18.574Z,99681.59
2023-01-15T22:05:46.662Z,99682.22
2023-01-15T22:08:14.519Z,99681.38
2023-01-15T22:10:42.344Z,99670.75
2023-01-15T22:13:11.482Z,99666.31
2023-01-15T22:15:39.280Z,99661.72
2023-01-15T22:18:07.059Z,99648.59
2023-01-15T22:20:34.935Z,99654.72
2023-01-15T22:23:02.753Z,99642.28
2023-01-15T22:25:30.556Z,99644.56
2023-01-15T22:27:58.374Z,99641.09
2023-01-15T22:30:27.589Z,99637.19
2023-01-15T22:32:55.399Z,99622.19
2023-01-15T22:35:23.462Z,99630.59
2023-01-15T22:37:51.262Z,99624.31
2023-01-15T22:40:19.465Z,99621.94
2023-01-15T22:42:47.307Z,99614.88
2023-01-15T22:45:15.116Z,99613.25
2023-01-15T22:47:44.340Z,99605.00
2023-01-15T22:50:12.714Z,99598.72
2023-01-15T22:52:40.734Z,99588.97
2023-01-15T22:55:10.131Z,99587.31
2023-01-15T22:57:37.919Z,99582.97
2023-01-15T23:00:07.111Z,99583.28
2023-01-15T23:02:52.304Z,99577.13
2023-01-15T23:05:22.226Z,99579.06
2023-01-15T23:07:50.200Z,99578.31
2023-01-15T23:10:18.208Z,99566.31
2023-01-15T23:12:46.027Z,99567.50
2023-01-15T23:15:16.047Z,99560.44
2023-01-15T23:17:44.337Z,99558.06
2023-01-15T23:20:14.190Z,99560.63
2023-01-15T23:22:43.400Z,99550.41
2023-01-15T23:25:11.183Z,99539.59
2023-01-15T23:27:38.971Z,99543.34
2023-01-15T23:30:07.814Z,99539.03
2023-01-15T23:32:35.558Z,99540.09
2023-01-15T23:35:03.302Z,99528.97
2023-01-15T23:37:31.073Z,99522.50
2023-01-15T23:40:00.232Z,99522.81
2023-01-15T23:42:45.367Z,99527.31
2023-01-15T23:45:30.765Z,99520.41
2023-01-15T23:47:58.549Z,99509.59
2023-01-15T23:50:26.325Z,99501.19
2023-01-15T23:52:54.064Z,99510.03
2023-01-15T23:55:23.253Z,99512.00
2023-01-15T23:57:51.042Z,99512.44
